Time;durP1;ratioP1;P1;durP2;ratioP2;P2;SDS_P1;SDS_P2;PMS_P1;PMS_P2;Temp;Humidity;BMP_temperature;BMP_pressure;BME280_temperature;BME280_humidity;BME280_pressure;Samples;Min_cycle;Max_cycle;Signal;HPM_P1;HPM_P2
2023/07/28 00:01:42;;;;;;;6.13;4.50;;;;;;;;;;4976375;28;20161;-76
2023/07/28 00:04:09;;;;;;;5.38;4.43;;;;;;;;;;4974581;28;20039;-75
2023/07/28 00:06:34;;;;;;;6.97;4.70;;;;;;;;;;4975083;28;20041;-76
2023/07/28 00:09:00;;;;;;;7.70;5.10;;;;;;;;;;4975966;28;20286;-77
2023/07/28 00:11:25;;;;;;;7.95;5.00;;;;;;;;;;4959017;28;20030;-76
2023/07/28 00:13:51;;;;;;;6.05;4.93;;;;;;;;;;4964390;28;20506;-76
2023/07/28 00:16:16;;;;;;;8.23;4.75;;;;;;;;;;4970438;28;20063;-76
2023/07/28 00:18:42;;;;;;;7.03;5.20;;;;;;;;;;4976207;28;20077;-77
2023/07/28 00:21:07;;;;;;;8.63;5.32;;;;;;;;;;4974352;28;20043;-77
2023/07/28 00:23:32;;;;;;;8.63;5.40;;;;;;;;;;4962115;28;20122;-76
2023/07/28 00:25:58;;;;;;;6.60;5.07;;;;;;;;;;4964300;28;20037;-77
2023/07/28 00:28:23;;;;;;;5.95;4.85;;;;;;;;;;4976805;28;20034;-76
2023/07/28 00:30:49;;;;;;;6.88;4.70;;;;;;;;;;4969738;28;20040;-77
2023/07/28 00:33:15;;;;;;;6.20;3.83;;;;;;;;;;4977714;28;20046;-75
2023/07/28 00:35:41;;;;;;;6.85;4.47;;;;;;;;;;4974381;28;20398;-77
2023/07/28 00:38:06;;;;;;;5.05;3.80;;;;;;;;;;4968927;28;20027;-75
2023/07/28 00:40:31;;;;;;;6.03;3.90;;;;;;;;;;4977805;28;20049;-75
2023/07/28 00:42:57;;;;;;;6.63;4.10;;;;;;;;;;4986749;28;20091;-75
2023/07/28 00:45:22;;;;;;;5.80;4.10;;;;;;;;;;4979169;28;20110;-76
2023/07/28 00:47:48;;;;;;;6.28;3.70;;;;;;;;;;4985947;28;20050;-76
2023/07/28 00:50:13;;;;;;;7.28;4.18;;;;;;;;;;4975113;28;20049;-76
2023/07/28 00:52:39;;;;;;;6.75;3.53;;;;;;;;;;4980363;28;20442;-76
2023/07/28 00:55:06;;;;;;;7.32;3.42;;;;;;;;;;4979730;28;20204;-75
2023/07/28 00:57:31;;;;;;;5.47;3.30;;;;;;;;;;4977101;28;20039;-76
2023/07/28 00:59:57;;;;;;;5.10;3.10;;;;;;;;;;4969016;28;20042;-76
2023/07/28 01:02:22;;;;;;;6.57;2.88;;;;;;;;;;4965462;28;20030;-76
2023/07/28 01:04:48;;;;;;;5.07;2.90;;;;;;;;;;4963972;28;20042;-77
2023/07/28 01:07:17;;;;;;;4.25;2.95;;;;;;;;;;4975545;28;20035;-76
2023/07/28 01:10:03;;;;;;;5.47;2.95;;;;;;;;;;4960800;28;20038;-76
2023/07/28 01:12:28;;;;;;;4.05;2.92;;;;;;;;;;4976250;28;20111;-76
2023/07/28 01:14:53;;;;;;;5.07;2.92;;;;;;;;;;4992647;28;20123;-76
2023/07/28 01:17:19;;;;;;;5.00;3.08;;;;;;;;;;4963948;28;20070;-77
2023/07/28 01:19:45;;;;;;;5.85;2.70;;;;;;;;;;4978299;28;20049;-77
2023/07/28 01:22:27;;;;;;;5.05;2.97;;;;;;;;;;4978893;28;20495;-77
2023/07/28 01:25:06;;;;;;;4.45;2.95;;;;;;;;;;4976135;28;20129;-77
2023/07/28 01:27:32;;;;;;;6.22;2.90;;;;;;;;;;4979295;28;20045;-76
2023/07/28 01:29:57;;;;;;;4.70;2.92;;;;;;;;;;4966947;28;20038;-76
2023/07/28 01:32:23;;;;;;;5.80;2.92;;;;;;;;;;4975404;28;20026;-77
2023/07/28 01:34:48;;;;;;;4.97;3.15;;;;;;;;;;4963438;28;20110;-76
2023/07/28 01:37:14;;;;;;;5.28;2.92;;;;;;;;;;4976493;28;20566;-76
2023/07/28 01:39:39;;;;;;;7.15;3.10;;;;;;;;;;4960692;28;20800;-76
2023/07/28 01:42:04;;;;;;;5.25;2.85;;;;;;;;;;4978350;28;20034;-77
2023/07/28 01:44:30;;;;;;;5.18;3.33;;;;;;;;;;4976300;28;20038;-76
2023/07/28 01:46:55;;;;;;;5.82;2.83;;;;;;;;;;4983689;28;20125;-76
2023/07/28 01:49:20;;;;;;;5.10;3.08;;;;;;;;;;4969678;28;20557;-76
2023/07/28 01:51:46;;;;;;;5.13;3.10;;;;;;;;;;4989608;28;20053;-77
2023/07/28 01:54:11;;;;;;;4.90;2.90;;;;;;;;;;4984696;28;20584;-76
2023/07/28 01:56:37;;;;;;;5.32;3.22;;;;;;;;;;4964638;28;20035;-77
2023/07/28 01:59:02;;;;;;;5.32;3.50;;;;;;;;;;4976111;28;20031;-77
2023/07/28 02:01:27;;;;;;;8.00;3.63;;;;;;;;;;4983756;28;20027;-76
2023/07/28 02:03:53;;;;;;;5.43;3.28;;;;;;;;;;4979443;28;20039;-77
2023/07/28 02:06:18;;;;;;;6.22;3.70;;;;;;;;;;4982722;28;20069;-76
2023/07/28 02:08:43;;;;;;;5.35;3.40;;;;;;;;;;4989982;28;20043;-76
2023/07/28 02:11:09;;;;;;;9.65;3.75;;;;;;;;;;4982194;28;20058;-76
2023/07/28 02:13:35;;;;;;;6.32;3.47;;;;;;;;;;4972589;28;20479;-76
2023/07/28 02:16:00;;;;;;;5.90;3.45;;;;;;;;;;4975015;28;20557;-76
2023/07/28 02:18:26;;;;;;;7.50;3.88;;;;;;;;;;4963422;28;21110;-76
2023/07/28 02:20:51;;;;;;;6.25;3.53;;;;;;;;;;4982612;28;20046;-76
2023/07/28 02:23:16;;;;;;;6.70;3.85;;;;;;;;;;4976874;28;20030;-75
2023/07/28 02:25:42;;;;;;;6.93;4.10;;;;;;;;;;4964715;28;20153;-75
2023/07/28 02:28:10;;;;;;;8.80;3.75;;;;;;;;;;4951361;28;20035;-76
2023/07/28 02:30:35;;;;;;;9.73;4.22;;;;;;;;;;4958991;28;20031;-76
2023/07/28 02:33:01;;;;;;;9.73;3.95;;;;;;;;;;4977309;28;20061;-76
2023/07/28 02:35:26;;;;;;;7.03;4.25;;;;;;;;;;4960829;28;20035;-76
2023/07/28 02:37:52;;;;;;;8.25;4.53;;;;;;;;;;4976418;28;20030;-76
2023/07/28 02:40:17;;;;;;;12.35;4.60;;;;;;;;;;4971024;28;20045;-76
2023/07/28 02:42:43;;;;;;;8.38;4.18;;;;;;;;;;4969548;28;20446;-75
2023/07/28 02:45:09;;;;;;;8.40;4.20;;;;;;;;;;4975254;28;20042;-76
2023/07/28 02:47:35;;;;;;;7.80;3.65;;;;;;;;;;4973827;28;20620;-75
2023/07/28 02:50:00;;;;;;;7.78;4.18;;;;;;;;;;4977999;28;20074;-77
2023/07/28 02:52:26;;;;;;;8.13;4.80;;;;;;;;;;4955334;28;20035;-77
2023/07/28 02:54:51;;;;;;;8.30;4.57;;;;;;;;;;4975401;28;20521;-76
2023/07/28 02:57:16;;;;;;;9.18;4.50;;;;;;;;;;4978461;28;20553;-75
2023/07/28 02:59:42;;;;;;;7.35;4.20;;;;;;;;;;4974225;28;20105;-77
2023/07/28 03:02:07;;;;;;;9.98;4.72;;;;;;;;;;4974413;28;20101;-77
2023/07/28 03:04:36;;;;;;;7.70;4.50;;;;;;;;;;4978555;28;20031;-76
2023/07/28 03:07:01;;;;;;;8.77;4.20;;;;;;;;;;4969752;28;20050;-78
2023/07/28 03:09:26;;;;;;;7.30;4.20;;;;;;;;;;4953030;28;20033;-76
2023/07/28 03:11:52;;;;;;;7.22;4.55;;;;;;;;;;4956719;28;20035;-76
2023/07/28 03:14:17;;;;;;;10.48;4.85;;;;;;;;;;4950939;28;20039;-77
2023/07/28 03:16:42;;;;;;;9.85;4.80;;;;;;;;;;4978409;28;20046;-77
2023/07/28 03:19:08;;;;;;;9.77;4.65;;;;;;;;;;4971151;28;20047;-77
2023/07/28 03:21:33;;;;;;;8.38;4.20;;;;;;;;;;4948677;28;20101;-77
2023/07/28 03:23:59;;;;;;;7.88;4.10;;;;;;;;;;4936635;28;20476;-77
2023/07/28 03:26:24;;;;;;;9.18;4.65;;;;;;;;;;4952709;28;20039;-77
2023/07/28 03:28:50;;;;;;;8.25;4.40;;;;;;;;;;4926782;28;20045;-77
2023/07/28 03:31:15;;;;;;;7.43;4.50;;;;;;;;;;4960611;28;20105;-77
2023/07/28 03:33:41;;;;;;;8.13;4.55;;;;;;;;;;4976454;28;20130;-77
2023/07/28 03:36:06;;;;;;;8.77;4.50;;;;;;;;;;4974778;28;20034;-77
2023/07/28 03:38:32;;;;;;;8.15;4.60;;;;;;;;;;4966578;28;20045;-77
2023/07/28 03:40:57;;;;;;;10.20;4.93;;;;;;;;;;4975580;28;20105;-77
2023/07/28 03:43:22;;;;;;;9.43;5.05;;;;;;;;;;4977923;28;20109;-77
2023/07/28 03:45:48;;;;;;;10.85;5.28;;;;;;;;;;4962789;28;20038;-77
2023/07/28 03:48:13;;;;;;;11.77;5.53;;;;;;;;;;4962809;28;20065;-77
2023/07/28 03:50:39;;;;;;;10.10;5.20;;;;;;;;;;4972819;28;22168;-77
2023/07/28 03:53:04;;;;;;;9.45;5.10;;;;;;;;;;4966980;28;20137;-77
2023/07/28 03:55:29;;;;;;;9.38;5.45;;;;;;;;;;4975445;28;20057;-77
2023/07/28 03:57:55;;;;;;;12.45;5.70;;;;;;;;;;4974288;28;20038;-77
2023/07/28 04:00:20;;;;;;;10.27;5.63;;;;;;;;;;4978126;28;20039;-77
2023/07/28 04:02:46;;;;;;;8.65;5.10;;;;;;;;;;4980403;28;20061;-76
2023/07/28 04:05:11;;;;;;;9.95;5.50;;;;;;;;;;4984255;28;20030;-76
2023/07/28 04:07:37;;;;;;;10.27;5.97;;;;;;;;;;4978492;28;20479;-76
2023/07/28 04:10:02;;;;;;;10.57;5.88;;;;;;;;;;4979155;28;20527;-76
2023/07/28 04:12:28;;;;;;;9.32;5.38;;;;;;;;;;4968172;28;20046;-76
2023/07/28 04:14:53;;;;;;;10.45;5.88;;;;;;;;;;4976382;28;20037;-76
2023/07/28 04:17:18;;;;;;;11.32;5.68;;;;;;;;;;4979676;28;20113;-76
2023/07/28 04:19:44;;;;;;;9.07;5.53;;;;;;;;;;4965127;28;20081;-76
2023/07/28 04:22:09;;;;;;;10.40;5.75;;;;;;;;;;4985583;28;20034;-76
2023/07/28 04:24:35;;;;;;;9.00;5.85;;;;;;;;;;4981540;28;20046;-76
2023/07/28 04:27:00;;;;;;;10.60;6.35;;;;;;;;;;4979107;28;20616;-77
2023/07/28 04:29:27;;;;;;;9.43;6.47;;;;;;;;;;4973252;28;20070;-76
2023/07/28 04:31:52;;;;;;;9.82;6.50;;;;;;;;;;4977592;28;20042;-76
2023/07/28 04:34:20;;;;;;;16.92;10.60;;;;;;;;;;4984218;28;20042;-75
2023/07/28 04:36:46;;;;;;;10.88;7.38;;;;;;;;;;4975595;28;20066;-76
2023/07/28 04:39:11;;;;;;;26.58;15.82;;;;;;;;;;4977083;28;20455;-77
2023/07/28 04:41:37;;;;;;;12.52;7.07;;;;;;;;;;4975960;28;20430;-77
2023/07/28 04:44:02;;;;;;;10.75;7.00;;;;;;;;;;4968824;28;20129;-77
2023/07/28 04:46:28;;;;;;;14.07;6.88;;;;;;;;;;4975719;28;20089;-77
2023/07/28 04:48:54;;;;;;;11.52;7.10;;;;;;;;;;4976904;28;20037;-77
2023/07/28 04:51:20;;;;;;;12.07;6.80;;;;;;;;;;4975000;28;20053;-76
2023/07/28 04:53:45;;;;;;;10.90;7.18;;;;;;;;;;4968364;28;20038;-76
2023/07/28 04:56:10;;;;;;;12.18;6.47;;;;;;;;;;4960551;28;20514;-76
2023/07/28 04:58:36;;;;;;;9.75;7.05;;;;;;;;;;4978749;28;20473;-77
2023/07/28 05:01:02;;;;;;;9.85;6.75;;;;;;;;;;4968117;28;20039;-76
2023/07/28 05:03:27;;;;;;;12.30;6.85;;;;;;;;;;4974153;28;20105;-77
2023/07/28 05:05:53;;;;;;;9.25;6.32;;;;;;;;;;4984478;28;20114;-77
2023/07/28 05:08:18;;;;;;;9.75;6.90;;;;;;;;;;4963910;28;20030;-77
2023/07/28 05:10:43;;;;;;;10.65;6.53;;;;;;;;;;4975873;28;20039;-76
2023/07/28 05:13:09;;;;;;;9.43;6.45;;;;;;;;;;4967857;28;20118;-77
2023/07/28 05:15:34;;;;;;;9.88;6.40;;;;;;;;;;4974764;28;20114;-77
2023/07/28 05:18:00;;;;;;;9.00;6.88;;;;;;;;;;4977769;28;20077;-76
2023/07/28 05:20:25;;;;;;;9.25;6.53;;;;;;;;;;4977320;28;20085;-78
2023/07/28 05:22:50;;;;;;;9.63;6.53;;;;;;;;;;5000141;28;20042;-77
2023/07/28 05:25:16;;;;;;;8.85;6.32;;;;;;;;;;4983521;28;20030;-77
2023/07/28 05:27:41;;;;;;;9.45;6.22;;;;;;;;;;4979220;28;20104;-77
2023/07/28 05:30:07;;;;;;;10.13;6.57;;;;;;;;;;4980251;28;20030;-77
2023/07/28 05:32:33;;;;;;;8.55;6.15;;;;;;;;;;4977252;28;21488;-78
2023/07/28 05:34:58;;;;;;;8.07;6.25;;;;;;;;;;4970148;28;20076;-77
2023/07/28 05:37:24;;;;;;;8.13;6.28;;;;;;;;;;4977993;28;20069;-78
2023/07/28 05:39:49;;;;;;;8.38;6.25;;;;;;;;;;4978121;28;20120;-77
2023/07/28 05:42:15;;;;;;;8.00;6.00;;;;;;;;;;4971183;28;20041;-77
2023/07/28 05:44:40;;;;;;;7.45;5.85;;;;;;;;;;4998922;28;20057;-77
2023/07/28 05:47:06;;;;;;;9.18;5.63;;;;;;;;;;4977061;28;20030;-77
2023/07/28 05:49:31;;;;;;;8.45;5.35;;;;;;;;;;4980883;28;20045;-77
2023/07/28 05:51:59;;;;;;;8.02;6.13;;;;;;;;;;4965889;28;20486;-75
2023/07/28 05:54:25;;;;;;;8.07;5.55;;;;;;;;;;4975322;28;20038;-78
2023/07/28 05:56:50;;;;;;;7.97;5.82;;;;;;;;;;4977655;28;20091;-78
2023/07/28 05:59:16;;;;;;;8.77;5.53;;;;;;;;;;4975700;28;20034;-75
2023/07/28 06:01:41;;;;;;;7.10;5.22;;;;;;;;;;4984698;28;20045;-76
2023/07/28 06:04:06;;;;;;;7.57;5.47;;;;;;;;;;4975667;28;20395;-78
2023/07/28 06:06:32;;;;;;;8.57;5.55;;;;;;;;;;4984675;28;20823;-75
2023/07/28 06:08:57;;;;;;;7.60;5.50;;;;;;;;;;4976269;28;20496;-76
2023/07/28 06:11:23;;;;;;;8.90;5.63;;;;;;;;;;4964222;28;20540;-76
2023/07/28 06:13:48;;;;;;;7.63;5.60;;;;;;;;;;4953571;28;20034;-76
2023/07/28 06:16:14;;;;;;;6.82;5.38;;;;;;;;;;4962908;28;20038;-76
2023/07/28 06:18:40;;;;;;;6.60;4.75;;;;;;;;;;4955130;28;20957;-77
2023/07/28 06:21:05;;;;;;;7.13;5.28;;;;;;;;;;4941094;28;20046;-77
2023/07/28 06:23:30;;;;;;;10.23;5.40;;;;;;;;;;4940684;28;20023;-77
2023/07/28 06:25:56;;;;;;;5.90;4.90;;;;;;;;;;4945515;28;20049;-76
2023/07/28 06:28:21;;;;;;;7.40;4.95;;;;;;;;;;4961933;28;20042;-77
2023/07/28 06:30:47;;;;;;;7.97;4.95;;;;;;;;;;4959715;28;20039;-76
2023/07/28 06:33:13;;;;;;;6.20;4.65;;;;;;;;;;4962194;28;20038;-78
2023/07/28 06:35:38;;;;;;;6.22;4.70;;;;;;;;;;4964648;28;20047;-77
2023/07/28 06:38:04;;;;;;;6.38;4.35;;;;;;;;;;4973572;28;20521;-77
2023/07/28 06:40:29;;;;;;;7.50;4.38;;;;;;;;;;4976243;28;20498;-77
2023/07/28 06:42:56;;;;;;;9.38;4.40;;;;;;;;;;4975247;28;20034;-74
2023/07/28 06:45:21;;;;;;;6.72;4.20;;;;;;;;;;4961823;28;20084;-76
2023/07/28 06:47:47;;;;;;;6.72;3.95;;;;;;;;;;4967195;28;20101;-75
2023/07/28 06:50:14;;;;;;;7.35;3.70;;;;;;;;;;4975391;28;20045;-74
2023/07/28 06:52:39;;;;;;;5.50;3.72;;;;;;;;;;4960429;28;20034;-76
2023/07/28 06:55:05;;;;;;;6.00;3.83;;;;;;;;;;4965651;28;20410;-76
2023/07/28 06:57:31;;;;;;;5.40;3.38;;;;;;;;;;4963114;28;20066;-77
2023/07/28 06:59:56;;;;;;;5.63;3.83;;;;;;;;;;4977643;28;20026;-75
2023/07/28 07:02:22;;;;;;;6.13;3.38;;;;;;;;;;4973540;28;20081;-76
2023/07/28 07:04:47;;;;;;;5.50;2.85;;;;;;;;;;4972872;28;20765;-75
2023/07/28 07:07:13;;;;;;;5.13;3.03;;;;;;;;;;4982835;28;20115;-76
2023/07/28 07:09:38;;;;;;;5.22;3.03;;;;;;;;;;4973165;28;20397;-76
2023/07/28 07:12:04;;;;;;;4.32;2.85;;;;;;;;;;4973269;28;20043;-76
2023/07/28 07:14:30;;;;;;;4.95;2.85;;;;;;;;;;4972265;28;20030;-75
2023/07/28 07:16:55;;;;;;;3.97;2.33;;;;;;;;;;4972195;28;20490;-76
2023/07/28 07:19:20;;;;;;;4.32;2.60;;;;;;;;;;4964034;28;20310;-76
2023/07/28 07:21:47;;;;;;;3.83;2.38;;;;;;;;;;4989562;28;20424;-77
2023/07/28 07:24:16;;;;;;;5.38;2.45;;;;;;;;;;4967430;28;20065;-77
2023/07/28 07:26:42;;;;;;;5.05;2.33;;;;;;;;;;4972519;28;20042;-75
2023/07/28 07:29:08;;;;;;;4.63;2.00;;;;;;;;;;4961384;28;20042;-77
2023/07/28 07:31:34;;;;;;;5.07;1.90;;;;;;;;;;4972870;28;22099;-75
2023/07/28 07:33:59;;;;;;;4.53;1.58;;;;;;;;;;4978050;28;20069;-76
2023/07/28 07:36:25;;;;;;;4.00;1.90;;;;;;;;;;4978097;28;20123;-76
2023/07/28 07:38:50;;;;;;;4.20;1.80;;;;;;;;;;4977642;28;20419;-77
2023/07/28 07:41:19;;;;;;;3.28;1.55;;;;;;;;;;4982216;28;20487;-76
2023/07/28 07:43:49;;;;;;;3.70;1.88;;;;;;;;;;4978508;28;20065;-78
2023/07/28 07:46:15;;;;;;;4.22;1.50;;;;;;;;;;4979779;28;20034;-78
2023/07/28 07:48:40;;;;;;;3.58;1.48;;;;;;;;;;4975675;28;20038;-76
2023/07/28 07:51:07;;;;;;;3.10;1.52;;;;;;;;;;4964335;28;20039;-78
2023/07/28 07:53:32;;;;;;;3.00;1.70;;;;;;;;;;4975109;28;20039;-75
2023/07/28 07:55:57;;;;;;;3.42;1.55;;;;;;;;;;4965132;28;20045;-76
2023/07/28 07:58:23;;;;;;;2.90;1.40;;;;;;;;;;4976022;28;20386;-77
2023/07/28 08:00:49;;;;;;;2.65;1.38;;;;;;;;;;4964479;28;20045;-78
2023/07/28 08:03:14;;;;;;;2.58;1.52;;;;;;;;;;4980271;28;20844;-76
2023/07/28 08:05:39;;;;;;;3.47;1.50;;;;;;;;;;4982570;28;20070;-77
2023/07/28 08:08:07;;;;;;;3.22;1.33;;;;;;;;;;4976665;28;20035;-76
2023/07/28 08:10:32;;;;;;;3.05;1.20;;;;;;;;;;4995325;28;20430;-78
2023/07/28 08:12:59;;;;;;;3.30;1.30;;;;;;;;;;4977640;28;20093;-78
2023/07/28 08:15:25;;;;;;;3.88;1.30;;;;;;;;;;4966511;28;20061;-78
2023/07/28 08:17:51;;;;;;;2.60;1.20;;;;;;;;;;4968338;28;20034;-76
2023/07/28 08:20:16;;;;;;;1.75;0.90;;;;;;;;;;4976043;28;20517;-76
2023/07/28 08:22:42;;;;;;;2.03;1.00;;;;;;;;;;4960492;28;20042;-76
2023/07/28 08:25:08;;;;;;;4.80;1.27;;;;;;;;;;4975107;28;20570;-76
2023/07/28 08:27:33;;;;;;;2.72;1.15;;;;;;;;;;4976617;28;20463;-76
2023/07/28 08:29:59;;;;;;;2.50;1.00;;;;;;;;;;4975943;28;20056;-77
2023/07/28 08:32:24;;;;;;;2.40;1.30;;;;;;;;;;4979322;28;20037;-76
2023/07/28 08:34:49;;;;;;;3.67;1.88;;;;;;;;;;4978191;28;20034;-76
2023/07/28 08:37:16;;;;;;;2.47;1.20;;;;;;;;;;4975548;28;20120;-77
2023/07/28 08:39:41;;;;;;;5.22;1.48;;;;;;;;;;4976527;28;20435;-77
2023/07/28 08:42:07;;;;;;;2.95;1.40;;;;;;;;;;4967280;28;20039;-76
2023/07/28 08:44:33;;;;;;;2.95;1.60;;;;;;;;;;4978712;28;20117;-75
2023/07/28 08:47:00;;;;;;;4.85;1.30;;;;;;;;;;4974332;28;20486;-76
2023/07/28 08:49:26;;;;;;;3.73;2.20;;;;;;;;;;4961733;28;20037;-77
2023/07/28 08:51:52;;;;;;;3.38;1.58;;;;;;;;;;4975183;28;20125;-76
2023/07/28 08:54:18;;;;;;;2.00;1.20;;;;;;;;;;4963575;28;20037;-78
2023/07/28 08:56:43;;;;;;;3.22;1.50;;;;;;;;;;4967453;28;20042;-78
2023/07/28 08:59:09;;;;;;;2.17;1.10;;;;;;;;;;4976335;28;20094;-78
2023/07/28 09:01:41;;;;;;;2.15;1.13;;;;;;;;;;4965665;28;20372;-76
2023/07/28 09:04:11;;;;;;;3.13;0.88;;;;;;;;;;4973430;28;20035;-77
2023/07/28 09:06:36;;;;;;;2.33;1.05;;;;;;;;;;4979726;28;20042;-77
2023/07/28 09:09:02;;;;;;;2.05;1.10;;;;;;;;;;4959953;28;20510;-77
2023/07/28 09:11:28;;;;;;;2.03;0.90;;;;;;;;;;4974485;28;20027;-76
2023/07/28 09:13:55;;;;;;;5.88;0.93;;;;;;;;;;4976881;28;20497;-77
2023/07/28 09:16:21;;;;;;;3.65;1.10;;;;;;;;;;4976578;28;20039;-77
2023/07/28 09:18:47;;;;;;;4.50;1.10;;;;;;;;;;4984049;28;20049;-77
2023/07/28 09:21:20;;;;;;;1.90;1.10;;;;;;;;;;4978882;28;20398;-78
2023/07/28 09:23:46;;;;;;;2.42;1.10;;;;;;;;;;4976311;28;20030;-78
2023/07/28 09:26:12;;;;;;;2.45;1.08;;;;;;;;;;4976842;28;20034;-78
2023/07/28 09:28:39;;;;;;;2.92;1.50;;;;;;;;;;4959632;28;20031;-77
2023/07/28 09:31:05;;;;;;;3.28;1.30;;;;;;;;;;4989758;28;20039;-77
2023/07/28 09:33:35;;;;;;;2.58;1.48;;;;;;;;;;4973677;28;20045;-78
2023/07/28 09:36:12;;;;;;;2.45;1.50;;;;;;;;;;4961472;28;20126;-76
2023/07/28 09:38:40;;;;;;;2.57;1.40;;;;;;;;;;4963889;28;20494;-76
2023/07/28 09:41:09;;;;;;;2.33;1.30;;;;;;;;;;4967204;28;20340;-78
2023/07/28 09:43:35;;;;;;;2.78;1.15;;;;;;;;;;4974089;28;20074;-77
2023/07/28 09:46:07;;;;;;;2.40;1.45;;;;;;;;;;4973410;28;20069;-78
2023/07/28 09:48:33;;;;;;;4.05;1.40;;;;;;;;;;4971897;28;20035;-77
2023/07/28 09:51:12;;;;;;;2.40;1.30;;;;;;;;;;4979382;28;20054;-77
2023/07/28 09:53:42;;;;;;;3.58;1.67;;;;;;;;;;4958744;28;20411;-79
2023/07/28 09:56:08;;;;;;;2.67;1.60;;;;;;;;;;4983526;28;20041;-77
2023/07/28 09:58:38;;;;;;;3.83;1.40;;;;;;;;;;4978020;28;20046;-78
2023/07/28 10:01:07;;;;;;;4.13;1.30;;;;;;;;;;4977149;28;20584;-77
2023/07/28 10:03:33;;;;;;;2.25;1.20;;;;;;;;;;4976323;28;20053;-79
2023/07/28 10:05:59;;;;;;;1.95;1.00;;;;;;;;;;4974889;28;20035;-77
2023/07/28 10:08:24;;;;;;;1.60;0.80;;;;;;;;;;4967359;28;20045;-77
2023/07/28 10:10:52;;;;;;;2.03;0.82;;;;;;;;;;4989926;28;20030;-78
2023/07/28 10:13:21;;;;;;;1.70;0.93;;;;;;;;;;4983262;28;20129;-77
2023/07/28 10:15:49;;;;;;;1.90;1.00;;;;;;;;;;4973580;28;20038;-78
2023/07/28 10:18:15;;;;;;;1.80;0.90;;;;;;;;;;4977589;28;20041;-78
2023/07/28 10:20:43;;;;;;;3.58;1.10;;;;;;;;;;4972372;28;20039;-78
2023/07/28 10:23:13;;;;;;;2.88;0.98;;;;;;;;;;4974366;28;20089;-78
2023/07/28 10:25:40;;;;;;;2.97;1.40;;;;;;;;;;4983491;28;20038;-77
2023/07/28 10:28:08;;;;;;;2.78;1.25;;;;;;;;;;4973813;28;20035;-77
2023/07/28 10:30:51;;;;;;;3.45;1.50;;;;;;;;;;4975789;28;20145;-78
2023/07/28 10:33:30;;;;;;;4.35;2.10;;;;;;;;;;4972910;28;20379;-77
2023/07/28 10:35:58;;;;;;;4.70;2.22;;;;;;;;;;4970638;28;20049;-78
2023/07/28 10:38:34;;;;;;;;;;;;;;;;;;4974017;28;20045;-78
2023/07/28 10:41:15;;;;;;;5.97;2.50;;;;;;;;;;4973276;28;19918;-77
2023/07/28 10:43:42;;;;;;;4.82;3.40;;;;;;;;;;4949660;28;20041;-78
2023/07/28 10:46:09;;;;;;;6.65;3.35;;;;;;;;;;4971975;28;20125;-77
2023/07/28 10:48:36;;;;;;;3.45;2.38;;;;;;;;;;4974745;28;20038;-77
2023/07/28 10:51:02;;;;;;;;;;;;;;;;;;4979184;28;20034;-78
2023/07/28 10:53:27;;;;;;;2.03;1.20;;;;;;;;;;4975453;28;19988;-78
2023/07/28 10:55:53;;;;;;;3.47;1.23;;;;;;;;;;4972764;28;20042;-78
2023/07/28 10:58:20;;;;;;;2.85;1.08;;;;;;;;;;4971468;28;20438;-78
2023/07/28 11:00:45;;;;;;;1.58;0.80;;;;;;;;;;4970328;28;20038;-77
2023/07/28 11:03:12;;;;;;;2.28;1.00;;;;;;;;;;4966029;28;20038;-78
2023/07/28 11:05:37;;;;;;;4.47;1.30;;;;;;;;;;4981076;28;20376;-79
2023/07/28 11:08:03;;;;;;;2.33;0.90;;;;;;;;;;4965319;28;20042;-78
2023/07/28 11:10:29;;;;;;;2.20;1.20;;;;;;;;;;4957313;28;20069;-78
2023/07/28 11:12:57;;;;;;;2.13;0.98;;;;;;;;;;4976332;28;20034;-76
2023/07/28 11:15:24;;;;;;;1.40;0.80;;;;;;;;;;4976995;28;20581;-77
2023/07/28 11:17:51;;;;;;;2.65;0.95;;;;;;;;;;4974508;28;20042;-76
2023/07/28 11:20:24;;;;;;;2.75;1.10;;;;;;;;;;4964672;28;20054;-77
2023/07/28 11:22:54;;;;;;;1.80;0.90;;;;;;;;;;4975277;28;20534;-76
2023/07/28 11:25:21;;;;;;;1.80;0.90;;;;;;;;;;4971854;28;20550;-77
2023/07/28 11:27:47;;;;;;;1.88;0.90;;;;;;;;;;4975485;28;20470;-77
2023/07/28 11:30:14;;;;;;;3.35;1.30;;;;;;;;;;4964698;28;20046;-77
2023/07/28 11:32:39;;;;;;;1.95;1.08;;;;;;;;;;4954569;28;20031;-77
2023/07/28 11:35:06;;;;;;;3.22;1.10;;;;;;;;;;4972370;28;20073;-77
2023/07/28 11:37:33;;;;;;;2.00;0.82;;;;;;;;;;4970416;28;20043;-77
2023/07/28 11:40:06;;;;;;;2.15;1.10;;;;;;;;;;4991118;28;20034;-78
2023/07/28 11:42:33;;;;;;;2.80;1.00;;;;;;;;;;4975153;28;20924;-78
2023/07/28 11:44:59;;;;;;;3.85;0.63;;;;;;;;;;4967569;28;20034;-78
2023/07/28 11:47:24;;;;;;;1.70;0.50;;;;;;;;;;4965593;28;20057;-76
2023/07/28 11:49:51;;;;;;;1.33;0.57;;;;;;;;;;4972573;28;20086;-77
2023/07/28 11:52:16;;;;;;;1.42;0.60;;;;;;;;;;4972505;28;20089;-77
2023/07/28 11:54:41;;;;;;;1.70;0.55;;;;;;;;;;4957458;28;20698;-76
2023/07/28 11:57:08;;;;;;;1.60;0.70;;;;;;;;;;4964275;28;20045;-78
2023/07/28 11:59:34;;;;;;;1.73;0.80;;;;;;;;;;4966555;28;20058;-78
2023/07/28 12:02:02;;;;;;;1.45;0.80;;;;;;;;;;4961700;28;20045;-78
2023/07/28 12:04:28;;;;;;;2.10;1.00;;;;;;;;;;4971107;28;20035;-78
2023/07/28 12:07:12;;;;;;;3.13;1.00;;;;;;;;;;4967251;28;20070;-77
2023/07/28 12:09:48;;;;;;;2.67;0.98;;;;;;;;;;4981995;28;20048;-78
2023/07/28 12:12:14;;;;;;;2.45;1.10;;;;;;;;;;4975609;28;20050;-78
2023/07/28 12:14:39;;;;;;;1.90;1.10;;;;;;;;;;4977293;28;20398;-76
2023/07/28 12:17:27;;;;;;;2.30;1.10;;;;;;;;;;4980550;28;20050;-78
2023/07/28 12:19:55;;;;;;;2.15;0.90;;;;;;;;;;4976358;28;20053;-77
2023/07/28 12:22:21;;;;;;;2.58;1.10;;;;;;;;;;4977230;28;20170;-78
2023/07/28 12:24:46;;;;;;;2.15;0.93;;;;;;;;;;4984712;28;20501;-77
2023/07/28 12:27:13;;;;;;;2.25;1.20;;;;;;;;;;4978821;28;20038;-78
2023/07/28 12:29:38;;;;;;;2.78;1.10;;;;;;;;;;4965430;28;20416;-78
2023/07/28 12:32:04;;;;;;;2.40;1.20;;;;;;;;;;4969240;28;20035;-78
2023/07/28 12:34:30;;;;;;;2.25;1.20;;;;;;;;;;4976028;28;20039;-78
2023/07/28 12:36:55;;;;;;;2.88;1.40;;;;;;;;;;4971957;28;20649;-77
2023/07/28 12:39:21;;;;;;;3.53;1.65;;;;;;;;;;4963925;28;20490;-77
2023/07/28 12:41:46;;;;;;;3.25;1.50;;;;;;;;;;4978886;28;20192;-77
2023/07/28 12:44:11;;;;;;;4.00;1.63;;;;;;;;;;4984769;28;20039;-77
2023/07/28 12:46:37;;;;;;;4.47;1.52;;;;;;;;;;4975434;28;20045;-77
2023/07/28 12:49:04;;;;;;;3.67;1.80;;;;;;;;;;4979930;28;20121;-77
2023/07/28 12:51:30;;;;;;;3.13;1.85;;;;;;;;;;4965216;28;20038;-77
2023/07/28 12:53:55;;;;;;;4.53;1.70;;;;;;;;;;4976602;28;20031;-77
2023/07/28 12:56:21;;;;;;;3.17;1.40;;;;;;;;;;4973762;28;20043;-77
2023/07/28 12:58:46;;;;;;;2.60;1.50;;;;;;;;;;4975937;28;20030;-77
2023/07/28 13:01:11;;;;;;;3.92;1.60;;;;;;;;;;4975735;28;20034;-78
2023/07/28 13:03:38;;;;;;;2.88;1.50;;;;;;;;;;4979450;28;20042;-78
2023/07/28 13:06:03;;;;;;;2.00;1.10;;;;;;;;;;4975959;28;20049;-77
2023/07/28 13:08:29;;;;;;;2.38;1.30;;;;;;;;;;4977978;28;20487;-78
2023/07/28 13:10:54;;;;;;;2.28;1.17;;;;;;;;;;4978520;28;20551;-77
2023/07/28 13:13:20;;;;;;;2.70;1.33;;;;;;;;;;4967149;28;20045;-77
2023/07/28 13:15:45;;;;;;;2.55;1.20;;;;;;;;;;4990868;28;20093;-77
2023/07/28 13:18:11;;;;;;;2.47;1.30;;;;;;;;;;4979092;28;20027;-76
2023/07/28 13:20:36;;;;;;;2.33;1.10;;;;;;;;;;4979604;28;20425;-77
2023/07/28 13:23:02;;;;;;;2.85;1.23;;;;;;;;;;4976719;28;20038;-77
2023/07/28 13:25:27;;;;;;;2.40;1.40;;;;;;;;;;4968473;28;20117;-77
2023/07/28 13:27:52;;;;;;;3.20;1.30;;;;;;;;;;4977269;28;20487;-77
2023/07/28 13:30:18;;;;;;;2.28;1.27;;;;;;;;;;4978758;28;20088;-78
2023/07/28 13:32:43;;;;;;;2.72;1.40;;;;;;;;;;4984814;28;20133;-77
2023/07/28 13:35:09;;;;;;;2.30;1.30;;;;;;;;;;4974335;28;20042;-77
2023/07/28 13:37:34;;;;;;;3.40;1.60;;;;;;;;;;4975301;28;20138;-76
2023/07/28 13:39:59;;;;;;;2.55;1.20;;;;;;;;;;4974272;28;20400;-76
2023/07/28 13:42:25;;;;;;;2.97;1.38;;;;;;;;;;4959507;28;20085;-77
2023/07/28 13:44:50;;;;;;;2.10;1.20;;;;;;;;;;4966759;28;20049;-78
2023/07/28 13:47:16;;;;;;;2.72;1.20;;;;;;;;;;4967626;28;20031;-77
2023/07/28 13:49:41;;;;;;;2.40;1.30;;;;;;;;;;4959176;28;20169;-76
2023/07/28 13:52:07;;;;;;;2.97;1.50;;;;;;;;;;4974741;28;20066;-77
2023/07/28 13:54:33;;;;;;;2.30;1.30;;;;;;;;;;4960787;28;20022;-76
2023/07/28 13:56:58;;;;;;;2.70;1.40;;;;;;;;;;4974109;28;20050;-78
2023/07/28 13:59:23;;;;;;;2.72;1.33;;;;;;;;;;4972594;28;20062;-78
2023/07/28 14:01:50;;;;;;;2.50;1.33;;;;;;;;;;4975070;28;20407;-77
2023/07/28 14:04:18;;;;;;;2.60;1.42;;;;;;;;;;4985094;28;20062;-77
2023/07/28 14:06:43;;;;;;;3.10;1.52;;;;;;;;;;4980838;28;20031;-78
2023/07/28 14:09:09;;;;;;;2.60;1.40;;;;;;;;;;4977796;28;20181;-77
2023/07/28 14:11:35;;;;;;;3.33;1.50;;;;;;;;;;4962314;28;20608;-79
2023/07/28 14:14:00;;;;;;;2.88;1.30;;;;;;;;;;4959798;28;20151;-78
2023/07/28 14:16:26;;;;;;;2.25;1.23;;;;;;;;;;4972865;28;20450;-78
2023/07/28 14:18:51;;;;;;;2.30;1.00;;;;;;;;;;4975271;28;20081;-78
2023/07/28 14:21:17;;;;;;;2.65;0.93;;;;;;;;;;4967452;28;20489;-78
2023/07/28 14:23:42;;;;;;;2.05;0.90;;;;;;;;;;4976406;28;20486;-77
2023/07/28 14:26:07;;;;;;;2.65;0.80;;;;;;;;;;4960405;28;20514;-77
2023/07/28 14:28:33;;;;;;;2.67;0.90;;;;;;;;;;4973193;28;20073;-77
2023/07/28 14:30:58;;;;;;;2.30;1.02;;;;;;;;;;4961638;28;20046;-78
2023/07/28 14:33:24;;;;;;;2.95;0.90;;;;;;;;;;4958306;28;20030;-77
2023/07/28 14:35:49;;;;;;;2.35;1.27;;;;;;;;;;4976980;28;20073;-78
2023/07/28 14:38:16;;;;;;;2.03;1.20;;;;;;;;;;4973869;28;20042;-77